sensor_id;sensor_type;location;lat;lon;timestamp;P1;durP1;ratioP1;P2;durP2;ratioP2
17449;SDS011;8842;51.244;7.102;2023-05-07T00:02:21;8.83;;;8.43;;
17449;SDS011;8842;51.244;7.102;2023-05-07T00:07:25;8.90;;;8.50;;
17449;SDS011;8842;51.244;7.102;2023-05-07T00:12:37;8.80;;;8.40;;
17449;SDS011;8842;51.244;7.102;2023-05-07T00:22:52;9.10;;;8.60;;
17449;SDS011;8842;51.244;7.102;2023-05-07T00:33:08;9.10;;;8.60;;
17449;SDS011;8842;51.244;7.102;2023-05-07T00:38:12;9.30;;;8.80;;
17449;SDS011;8842;51.244;7.102;2023-05-07T00:43:23;9.30;;;8.80;;
17449;SDS011;8842;51.244;7.102;2023-05-07T00:48:28;9.60;;;9.10;;
17449;SDS011;8842;51.244;7.102;2023-05-07T00:53:32;9.07;;;8.63;;
17449;SDS011;8842;51.244;7.102;2023-05-07T01:03:48;9.30;;;8.80;;
17449;SDS011;8842;51.244;7.102;2023-05-07T01:08:52;8.80;;;8.40;;
17449;SDS011;8842;51.244;7.102;2023-05-07T01:14:04;9.20;;;8.70;;
17449;SDS011;8842;51.244;7.102;2023-05-07T01:19:08;9.00;;;8.60;;
17449;SDS011;8842;51.244;7.102;2023-05-07T01:24:20;9.03;;;8.53;;
17449;SDS011;8842;51.244;7.102;2023-05-07T01:29:25;9.10;;;8.60;;
17449;SDS011;8842;51.244;7.102;2023-05-07T01:34:36;9.30;;;8.80;;
17449;SDS011;8842;51.244;7.102;2023-05-07T01:39:42;9.40;;;8.80;;
17449;SDS011;8842;51.244;7.102;2023-05-07T01:44:47;9.40;;;8.90;;
17449;SDS011;8842;51.244;7.102;2023-05-07T01:49:59;9.20;;;8.70;;
17449;SDS011;8842;51.244;7.102;2023-05-07T01:55:04;9.20;;;8.70;;
17449;SDS011;8842;51.244;7.102;2023-05-07T02:00:18;9.17;;;8.70;;
17449;SDS011;8842;51.244;7.102;2023-05-07T02:10:36;8.70;;;8.30;;
17449;SDS011;8842;51.244;7.102;2023-05-07T02:15:40;8.70;;;8.30;;
17449;SDS011;8842;51.244;7.102;2023-05-07T02:20:52;8.80;;;8.40;;
17449;SDS011;8842;51.244;7.102;2023-05-07T02:26:04;8.50;;;8.10;;
17449;SDS011;8842;51.244;7.102;2023-05-07T02:31:08;8.70;;;8.30;;
17449;SDS011;8842;51.244;7.102;2023-05-07T02:36:12;8.80;;;8.40;;
17449;SDS011;8842;51.244;7.102;2023-05-07T02:41:26;9.03;;;8.57;;
17449;SDS011;8842;51.244;7.102;2023-05-07T02:46:30;9.00;;;8.50;;
17449;SDS011;8842;51.244;7.102;2023-05-07T02:51:35;8.70;;;8.30;;
17449;SDS011;8842;51.244;7.102;2023-05-07T02:56:39;9.20;;;8.70;;
17449;SDS011;8842;51.244;7.102;2023-05-07T03:01:43;9.30;;;8.80;;
17449;SDS011;8842;51.244;7.102;2023-05-07T03:06:54;8.87;;;8.47;;
17449;SDS011;8842;51.244;7.102;2023-05-07T03:11:58;9.40;;;8.90;;
17449;SDS011;8842;51.244;7.102;2023-05-07T03:17:04;9.30;;;8.80;;
17449;SDS011;8842;51.244;7.102;2023-05-07T03:22:15;9.20;;;8.70;;
17449;SDS011;8842;51.244;7.102;2023-05-07T03:27:20;8.97;;;8.57;;
17449;SDS011;8842;51.244;7.102;2023-05-07T03:37:35;8.90;;;8.50;;
17449;SDS011;8842;51.244;7.102;2023-05-07T03:42:39;9.23;;;8.73;;
17449;SDS011;8842;51.244;7.102;2023-05-07T03:47:43;8.80;;;8.40;;
17449;SDS011;8842;51.244;7.102;2023-05-07T03:52:55;8.87;;;8.27;;
17449;SDS011;8842;51.244;7.102;2023-05-07T03:57:59;9.20;;;8.70;;
17449;SDS011;8842;51.244;7.102;2023-05-07T04:03:10;8.83;;;8.43;;
17449;SDS011;8842;51.244;7.102;2023-05-07T04:08:14;8.90;;;8.50;;
17449;SDS011;8842;51.244;7.102;2023-05-07T04:13:26;9.50;;;9.00;;
17449;SDS011;8842;51.244;7.102;2023-05-07T04:23:44;9.50;;;9.00;;
17449;SDS011;8842;51.244;7.102;2023-05-07T04:28:48;9.70;;;9.20;;
17449;SDS011;8842;51.244;7.102;2023-05-07T04:34:03;9.53;;;9.03;;
17449;SDS011;8842;51.244;7.102;2023-05-07T04:39:07;9.43;;;8.93;;
17449;SDS011;8842;51.244;7.102;2023-05-07T04:44:18;9.80;;;9.30;;
17449;SDS011;8842;51.244;7.102;2023-05-07T04:49:23;9.60;;;9.10;;
17449;SDS011;8842;51.244;7.102;2023-05-07T04:54:37;9.63;;;9.13;;
17449;SDS011;8842;51.244;7.102;2023-05-07T04:59:41;9.77;;;9.27;;
17449;SDS011;8842;51.244;7.102;2023-05-07T05:04:56;9.77;;;9.27;;
17449;SDS011;8842;51.244;7.102;2023-05-07T05:09:59;9.77;;;9.27;;
17449;SDS011;8842;51.244;7.102;2023-05-07T05:15:11;9.90;;;9.40;;
17449;SDS011;8842;51.244;7.102;2023-05-07T05:20:16;9.80;;;9.30;;
17449;SDS011;8842;51.244;7.102;2023-05-07T05:25:43;9.97;;;9.47;;
17449;SDS011;8842;51.244;7.102;2023-05-07T05:36:00;10.60;;;10.00;;
17449;SDS011;8842;51.244;7.102;2023-05-07T05:41:05;10.50;;;10.00;;
17449;SDS011;8842;51.244;7.102;2023-05-07T05:46:16;10.43;;;9.93;;
17449;SDS011;8842;51.244;7.102;2023-05-07T05:51:21;10.50;;;10.00;;
17449;SDS011;8842;51.244;7.102;2023-05-07T05:56:36;10.60;;;10.10;;
17449;SDS011;8842;51.244;7.102;2023-05-07T06:01:40;11.13;;;10.50;;
17449;SDS011;8842;51.244;7.102;2023-05-07T06:06:44;11.07;;;10.40;;
17449;SDS011;8842;51.244;7.102;2023-05-07T06:11:56;10.60;;;10.10;;
17449;SDS011;8842;51.244;7.102;2023-05-07T06:17:00;10.70;;;10.13;;
17449;SDS011;8842;51.244;7.102;2023-05-07T06:22:14;11.33;;;10.70;;
17449;SDS011;8842;51.244;7.102;2023-05-07T06:32:31;10.80;;;10.20;;
17449;SDS011;8842;51.244;7.102;2023-05-07T06:37:36;10.50;;;10.00;;
17449;SDS011;8842;51.244;7.102;2023-05-07T06:42:50;10.70;;;10.20;;
17449;SDS011;8842;51.244;7.102;2023-05-07T06:47:54;10.33;;;9.83;;
17449;SDS011;8842;51.244;7.102;2023-05-07T06:53:06;10.30;;;9.80;;
17449;SDS011;8842;51.244;7.102;2023-05-07T06:58:10;10.40;;;9.90;;
17449;SDS011;8842;51.244;7.102;2023-05-07T07:03:24;9.90;;;9.40;;
17449;SDS011;8842;51.244;7.102;2023-05-07T07:08:28;10.50;;;10.00;;
17449;SDS011;8842;51.244;7.102;2023-05-07T07:13:40;10.23;;;9.73;;
17449;SDS011;8842;51.244;7.102;2023-05-07T07:18:45;8.80;;;8.40;;
17449;SDS011;8842;51.244;7.102;2023-05-07T07:23:57;10.60;;;10.00;;
17449;SDS011;8842;51.244;7.102;2023-05-07T07:29:01;10.10;;;8.97;;
17449;SDS011;8842;51.244;7.102;2023-05-07T07:34:13;9.73;;;9.13;;
17449;SDS011;8842;51.244;7.102;2023-05-07T07:44:31;8.90;;;8.50;;
17449;SDS011;8842;51.244;7.102;2023-05-07T07:49:35;9.43;;;8.90;;
17449;SDS011;8842;51.244;7.102;2023-05-07T07:54:46;10.00;;;9.40;;
17449;SDS011;8842;51.244;7.102;2023-05-07T07:59:50;9.10;;;8.70;;
17449;SDS011;8842;51.244;7.102;2023-05-07T08:05:04;9.80;;;9.30;;
17449;SDS011;8842;51.244;7.102;2023-05-07T08:15:22;9.40;;;8.90;;
17449;SDS011;8842;51.244;7.102;2023-05-07T08:20:26;9.50;;;9.00;;
17449;SDS011;8842;51.244;7.102;2023-05-07T08:25:38;9.60;;;9.10;;
17449;SDS011;8842;51.244;7.102;2023-05-07T08:30:42;9.05;;;8.65;;
17449;SDS011;8842;51.244;7.102;2023-05-07T08:35:56;8.73;;;8.33;;
17449;SDS011;8842;51.244;7.102;2023-05-07T08:41:00;8.90;;;8.50;;
17449;SDS011;8842;51.244;7.102;2023-05-07T08:46:12;9.35;;;8.88;;
17449;SDS011;8842;51.244;7.102;2023-05-07T08:51:20;9.45;;;8.95;;
17449;SDS011;8842;51.244;7.102;2023-05-07T08:56:32;8.85;;;8.45;;
17449;SDS011;8842;51.244;7.102;2023-05-07T09:01:36;9.28;;;8.78;;
17449;SDS011;8842;51.244;7.102;2023-05-07T09:06:41;9.48;;;8.98;;
17449;SDS011;8842;51.244;7.102;2023-05-07T09:11:56;9.83;;;9.33;;
17449;SDS011;8842;51.244;7.102;2023-05-07T09:17:02;8.95;;;8.55;;
17449;SDS011;8842;51.244;7.102;2023-05-07T09:22:06;8.85;;;8.45;;
17449;SDS011;8842;51.244;7.102;2023-05-07T09:27:20;8.33;;;7.92;;
17449;SDS011;8842;51.244;7.102;2023-05-07T09:32:24;8.80;;;8.40;;
17449;SDS011;8842;51.244;7.102;2023-05-07T09:37:31;9.95;;;9.45;;
17449;SDS011;8842;51.244;7.102;2023-05-07T09:47:48;10.05;;;9.55;;
17449;SDS011;8842;51.244;7.102;2023-05-07T09:52:55;10.23;;;9.73;;
17449;SDS011;8842;51.244;7.102;2023-05-07T09:58:00;10.00;;;9.40;;
17449;SDS011;8842;51.244;7.102;2023-05-07T10:03:05;9.65;;;9.15;;
17449;SDS011;8842;51.244;7.102;2023-05-07T10:08:20;8.80;;;8.40;;
17449;SDS011;8842;51.244;7.102;2023-05-07T10:13:24;9.10;;;8.70;;
17449;SDS011;8842;51.244;7.102;2023-05-07T10:18:36;9.80;;;9.30;;
17449;SDS011;8842;51.244;7.102;2023-05-07T10:23:41;9.50;;;9.00;;
17449;SDS011;8842;51.244;7.102;2023-05-07T10:28:49;9.18;;;8.75;;
17449;SDS011;8842;51.244;7.102;2023-05-07T10:33:56;10.50;;;10.00;;
17449;SDS011;8842;51.244;7.102;2023-05-07T10:39:08;10.45;;;9.95;;
17449;SDS011;8842;51.244;7.102;2023-05-07T10:44:20;10.40;;;9.90;;
17449;SDS011;8842;51.244;7.102;2023-05-07T10:49:38;9.65;;;9.15;;
17449;SDS011;8842;51.244;7.102;2023-05-07T11:00:41;10.43;;;9.93;;
17449;SDS011;8842;51.244;7.102;2023-05-07T11:05:46;10.65;;;10.15;;
17449;SDS011;8842;51.244;7.102;2023-05-07T11:11:00;10.88;;;10.30;;
17449;SDS011;8842;51.244;7.102;2023-05-07T11:16:05;10.28;;;9.78;;
17449;SDS011;8842;51.244;7.102;2023-05-07T11:21:31;8.85;;;8.45;;
17449;SDS011;8842;51.244;7.102;2023-05-07T11:26:45;9.85;;;9.35;;
17449;SDS011;8842;51.244;7.102;2023-05-07T11:31:50;9.35;;;8.85;;
17449;SDS011;8842;51.244;7.102;2023-05-07T11:37:02;9.98;;;9.48;;
17449;SDS011;8842;51.244;7.102;2023-05-07T11:42:07;10.82;;;10.23;;
17449;SDS011;8842;51.244;7.102;2023-05-07T11:47:19;11.70;;;11.10;;
17449;SDS011;8842;51.244;7.102;2023-05-07T11:52:23;10.95;;;10.35;;
17449;SDS011;8842;51.244;7.102;2023-05-07T11:57:35;11.70;;;11.10;;
17449;SDS011;8842;51.244;7.102;2023-05-07T12:02:39;11.97;;;11.38;;
17449;SDS011;8842;51.244;7.102;2023-05-07T12:07:56;11.80;;;11.10;;
17449;SDS011;8842;51.244;7.102;2023-05-07T12:13:00;10.80;;;10.25;;
17449;SDS011;8842;51.244;7.102;2023-05-07T12:18:04;10.30;;;9.80;;
17449;SDS011;8842;51.244;7.102;2023-05-07T12:23:09;10.32;;;9.83;;
17449;SDS011;8842;51.244;7.102;2023-05-07T12:28:21;11.48;;;10.88;;
17449;SDS011;8842;51.244;7.102;2023-05-07T12:33:26;10.60;;;10.10;;
17449;SDS011;8842;51.244;7.102;2023-05-07T12:38:38;11.20;;;10.60;;
17449;SDS011;8842;51.244;7.102;2023-05-07T12:43:44;10.50;;;10.00;;
17449;SDS011;8842;51.244;7.102;2023-05-07T12:48:49;10.90;;;10.32;;
17449;SDS011;8842;51.244;7.102;2023-05-07T12:53:56;11.08;;;10.48;;
17449;SDS011;8842;51.244;7.102;2023-05-07T12:59:07;10.58;;;9.98;;
17449;SDS011;8842;51.244;7.102;2023-05-07T13:04:11;11.30;;;10.70;;
17449;SDS011;8842;51.244;7.102;2023-05-07T13:09:26;12.10;;;11.40;;
17449;SDS011;8842;51.244;7.102;2023-05-07T13:14:31;12.58;;;11.88;;
17449;SDS011;8842;51.244;7.102;2023-05-07T13:19:43;12.98;;;12.20;;
17449;SDS011;8842;51.244;7.102;2023-05-07T13:24:57;12.50;;;11.90;;
17449;SDS011;8842;51.244;7.102;2023-05-07T13:30:01;12.40;;;11.70;;
17449;SDS011;8842;51.244;7.102;2023-05-07T13:35:08;12.00;;;11.40;;
17449;SDS011;8842;51.244;7.102;2023-05-07T13:40:20;11.00;;;10.40;;
17449;SDS011;8842;51.244;7.102;2023-05-07T13:45:25;11.30;;;10.70;;
17449;SDS011;8842;51.244;7.102;2023-05-07T13:50:29;11.53;;;10.93;;
17449;SDS011;8842;51.244;7.102;2023-05-07T13:55:33;11.40;;;10.80;;
17449;SDS011;8842;51.244;7.102;2023-05-07T14:00:37;12.03;;;11.43;;
17449;SDS011;8842;51.244;7.102;2023-05-07T14:05:42;12.27;;;11.57;;
17449;SDS011;8842;51.244;7.102;2023-05-07T14:10:55;12.17;;;11.47;;
17449;SDS011;8842;51.244;7.102;2023-05-07T14:15:59;11.70;;;11.10;;
17449;SDS011;8842;51.244;7.102;2023-05-07T14:21:04;11.80;;;11.20;;
17449;SDS011;8842;51.244;7.102;2023-05-07T14:26:09;11.60;;;11.00;;
17449;SDS011;8842;51.244;7.102;2023-05-07T14:31:13;11.60;;;11.00;;
17449;SDS011;8842;51.244;7.102;2023-05-07T14:36:25;11.33;;;10.73;;
17449;SDS011;8842;51.244;7.102;2023-05-07T14:41:29;11.53;;;10.93;;
17449;SDS011;8842;51.244;7.102;2023-05-07T14:46:35;11.00;;;10.40;;
17449;SDS011;8842;51.244;7.102;2023-05-07T14:51:39;11.20;;;10.60;;
17449;SDS011;8842;51.244;7.102;2023-05-07T14:56:51;10.90;;;10.30;;
17449;SDS011;8842;51.244;7.102;2023-05-07T15:01:55;10.10;;;9.60;;
17449;SDS011;8842;51.244;7.102;2023-05-07T15:07:07;10.00;;;9.50;;
17449;SDS011;8842;51.244;7.102;2023-05-07T15:12:11;9.50;;;9.00;;
17449;SDS011;8842;51.244;7.102;2023-05-07T15:17:16;10.70;;;10.13;;
17449;SDS011;8842;51.244;7.102;2023-05-07T15:22:20;12.00;;;11.40;;
17449;SDS011;8842;51.244;7.102;2023-05-07T15:27:24;12.60;;;11.90;;
17449;SDS011;8842;51.244;7.102;2023-05-07T15:32:28;12.93;;;12.23;;
17449;SDS011;8842;51.244;7.102;2023-05-07T15:37:32;13.07;;;12.37;;
17449;SDS011;8842;51.244;7.102;2023-05-07T15:42:37;14.13;;;13.30;;
17449;SDS011;8842;51.244;7.102;2023-05-07T15:47:53;13.80;;;13.10;;
17449;SDS011;8842;51.244;7.102;2023-05-07T15:52:57;14.07;;;13.37;;
17449;SDS011;8842;51.244;7.102;2023-05-07T15:58:11;13.10;;;12.40;;
17449;SDS011;8842;51.244;7.102;2023-05-07T16:03:15;13.70;;;13.00;;
17449;SDS011;8842;51.244;7.102;2023-05-07T16:08:20;13.07;;;12.37;;
17449;SDS011;8842;51.244;7.102;2023-05-07T16:13:24;12.47;;;11.87;;
17449;SDS011;8842;51.244;7.102;2023-05-07T16:18:28;13.17;;;12.37;;
17449;SDS011;8842;51.244;7.102;2023-05-07T16:23:32;12.07;;;11.47;;
17449;SDS011;8842;51.244;7.102;2023-05-07T16:28:36;12.33;;;11.73;;
17449;SDS011;8842;51.244;7.102;2023-05-07T16:33:40;12.50;;;11.90;;
17449;SDS011;8842;51.244;7.102;2023-05-07T16:38:45;13.30;;;12.60;;
17449;SDS011;8842;51.244;7.102;2023-05-07T16:43:49;12.50;;;11.90;;
17449;SDS011;8842;51.244;7.102;2023-05-07T16:48:53;13.23;;;12.53;;
17449;SDS011;8842;51.244;7.102;2023-05-07T16:53:58;13.40;;;12.70;;
17449;SDS011;8842;51.244;7.102;2023-05-07T16:59:02;13.10;;;12.40;;
17449;SDS011;8842;51.244;7.102;2023-05-07T17:04:06;12.57;;;11.97;;
17449;SDS011;8842;51.244;7.102;2023-05-07T17:09:10;13.30;;;12.60;;
17449;SDS011;8842;51.244;7.102;2023-05-07T17:14:22;13.60;;;12.90;;
17449;SDS011;8842;51.244;7.102;2023-05-07T17:19:26;13.40;;;12.70;;
17449;SDS011;8842;51.244;7.102;2023-05-07T17:24:30;13.30;;;12.60;;
17449;SDS011;8842;51.244;7.102;2023-05-07T17:29:34;13.27;;;12.57;;
17449;SDS011;8842;51.244;7.102;2023-05-07T17:34:38;13.43;;;12.73;;
17449;SDS011;8842;51.244;7.102;2023-05-07T17:39:42;12.50;;;11.90;;
17449;SDS011;8842;51.244;7.102;2023-05-07T17:44:57;13.60;;;12.90;;
17449;SDS011;8842;51.244;7.102;2023-05-07T17:50:01;13.20;;;12.50;;
17449;SDS011;8842;51.244;7.102;2023-05-07T17:55:13;12.70;;;12.00;;
17449;SDS011;8842;51.244;7.102;2023-05-07T18:00:18;12.50;;;11.90;;
17449;SDS011;8842;51.244;7.102;2023-05-07T18:05:22;12.70;;;12.00;;
17449;SDS011;8842;51.244;7.102;2023-05-07T18:10:37;13.17;;;12.47;;
17449;SDS011;8842;51.244;7.102;2023-05-07T18:15:41;12.53;;;11.93;;
17449;SDS011;8842;51.244;7.102;2023-05-07T18:20:48;12.73;;;12.03;;
17449;SDS011;8842;51.244;7.102;2023-05-07T18:26:00;12.93;;;12.23;;
17449;SDS011;8842;51.244;7.102;2023-05-07T18:31:04;13.33;;;12.63;;
17449;SDS011;8842;51.244;7.102;2023-05-07T18:36:08;12.00;;;11.40;;
17449;SDS011;8842;51.244;7.102;2023-05-07T18:41:12;11.30;;;10.70;;
17449;SDS011;8842;51.244;7.102;2023-05-07T18:46:16;11.70;;;11.10;;
17449;SDS011;8842;51.244;7.102;2023-05-07T18:51:28;10.97;;;10.37;;
17449;SDS011;8842;51.244;7.102;2023-05-07T18:56:32;11.30;;;10.70;;
17449;SDS011;8842;51.244;7.102;2023-05-07T19:01:36;12.17;;;11.37;;
17449;SDS011;8842;51.244;7.102;2023-05-07T19:06:48;12.40;;;11.80;;
17449;SDS011;8842;51.244;7.102;2023-05-07T19:11:53;11.73;;;11.13;;
17449;SDS011;8842;51.244;7.102;2023-05-07T19:17:05;11.70;;;11.10;;
17449;SDS011;8842;51.244;7.102;2023-05-07T19:22:09;12.80;;;12.10;;
17449;SDS011;8842;51.244;7.102;2023-05-07T19:27:21;13.00;;;12.30;;
17449;SDS011;8842;51.244;7.102;2023-05-07T19:32:25;12.90;;;12.20;;
17449;SDS011;8842;51.244;7.102;2023-05-07T19:37:29;13.20;;;12.50;;
17449;SDS011;8842;51.244;7.102;2023-05-07T19:42:33;13.90;;;13.20;;
17449;SDS011;8842;51.244;7.102;2023-05-07T19:52:48;13.40;;;12.70;;
17449;SDS011;8842;51.244;7.102;2023-05-07T19:57:52;13.30;;;12.60;;
17449;SDS011;8842;51.244;7.102;2023-05-07T20:03:06;13.27;;;12.57;;
17449;SDS011;8842;51.244;7.102;2023-05-07T20:13:29;13.17;;;12.47;;
17449;SDS011;8842;51.244;7.102;2023-05-07T20:18:33;13.10;;;12.40;;
17449;SDS011;8842;51.244;7.102;2023-05-07T20:28:50;13.50;;;12.80;;
17449;SDS011;8842;51.244;7.102;2023-05-07T20:33:54;13.43;;;12.73;;
17449;SDS011;8842;51.244;7.102;2023-05-07T20:39:09;13.40;;;12.70;;
17449;SDS011;8842;51.244;7.102;2023-05-07T20:44:15;13.00;;;12.30;;
17449;SDS011;8842;51.244;7.102;2023-05-07T20:49:20;12.60;;;12.00;;
17449;SDS011;8842;51.244;7.102;2023-05-07T20:54:34;12.53;;;11.93;;
17449;SDS011;8842;51.244;7.102;2023-05-07T20:59:41;12.57;;;11.97;;
17449;SDS011;8842;51.244;7.102;2023-05-07T21:04:45;12.50;;;11.90;;
17449;SDS011;8842;51.244;7.102;2023-05-07T21:10:00;12.30;;;11.70;;
17449;SDS011;8842;51.244;7.102;2023-05-07T21:15:05;12.10;;;11.50;;
17449;SDS011;8842;51.244;7.102;2023-05-07T21:20:18;12.40;;;11.80;;
17449;SDS011;8842;51.244;7.102;2023-05-07T21:25:22;12.70;;;12.00;;
17449;SDS011;8842;51.244;7.102;2023-05-07T21:30:34;12.20;;;11.60;;
17449;SDS011;8842;51.244;7.102;2023-05-07T21:35:39;11.90;;;11.30;;
17449;SDS011;8842;51.244;7.102;2023-05-07T21:40:53;12.53;;;11.90;;
17449;SDS011;8842;51.244;7.102;2023-05-07T21:45:58;12.57;;;11.97;;
17449;SDS011;8842;51.244;7.102;2023-05-07T21:51:12;13.07;;;12.37;;
17449;SDS011;8842;51.244;7.102;2023-05-07T21:56:17;13.30;;;12.60;;
17449;SDS011;8842;51.244;7.102;2023-05-07T22:01:28;12.63;;;12.00;;
17449;SDS011;8842;51.244;7.102;2023-05-07T22:06:32;12.70;;;12.00;;
17449;SDS011;8842;51.244;7.102;2023-05-07T22:11:36;12.37;;;11.77;;
17449;SDS011;8842;51.244;7.102;2023-05-07T22:16:40;11.97;;;11.37;;
17449;SDS011;8842;51.244;7.102;2023-05-07T22:21:45;11.60;;;11.00;;
17449;SDS011;8842;51.244;7.102;2023-05-07T22:26:59;12.00;;;11.40;;
17449;SDS011;8842;51.244;7.102;2023-05-07T22:32:03;11.83;;;11.23;;
17449;SDS011;8842;51.244;7.102;2023-05-07T22:37:15;11.60;;;11.00;;
17449;SDS011;8842;51.244;7.102;2023-05-07T22:42:19;11.53;;;10.93;;
17449;SDS011;8842;51.244;7.102;2023-05-07T22:47:31;11.37;;;10.77;;
17449;SDS011;8842;51.244;7.102;2023-05-07T22:52:35;12.20;;;11.60;;
17449;SDS011;8842;51.244;7.102;2023-05-07T22:57:39;12.53;;;11.87;;
17449;SDS011;8842;51.244;7.102;2023-05-07T23:07:57;12.57;;;11.97;;
17449;SDS011;8842;51.244;7.102;2023-05-07T23:13:01;13.00;;;12.30;;
17449;SDS011;8842;51.244;7.102;2023-05-07T23:18:16;12.60;;;11.90;;
17449;SDS011;8842;51.244;7.102;2023-05-07T23:23:20;11.50;;;10.90;;
17449;SDS011;8842;51.244;7.102;2023-05-07T23:28:32;12.47;;;11.87;;
17449;SDS011;8842;51.244;7.102;2023-05-07T23:33:36;12.10;;;11.50;;
17449;SDS011;8842;51.244;7.102;2023-05-07T23:38:40;12.20;;;11.60;;
17449;SDS011;8842;51.244;7.102;2023-05-07T23:43:55;12.10;;;11.50;;
17449;SDS011;8842;51.244;7.102;2023-05-07T23:48:59;12.20;;;11.60;;
17449;SDS011;8842;51.244;7.102;2023-05-07T23:54:10;11.70;;;11.10;;
17449;SDS011;8842;51.244;7.102;2023-05-07T23:59:15;11.60;;;11.00;;
